Time;durP1;ratioP1;P1;durP2;ratioP2;P2;SDS_P1;SDS_P2;PMS_P1;PMS_P2;Temp;Humidity;BMP_temperature;BMP_pressure;BME280_temperature;BME280_humidity;BME280_pressure;Samples;Min_cycle;Max_cycle;Signal;HPM_P1;HPM_P2
2020/12/03 00:02:13;;;;;;;51.47;33.60;;;2.10;99.90;;;;;;4988817;28;21094;-77
2020/12/03 00:04:57;;;;;;;47.33;30.97;;;2.10;99.90;;;;;;4994026;28;20723;-77
2020/12/03 00:07:42;;;;;;;53.80;33.20;;;2.00;99.90;;;;;;5017770;28;20642;-78
2020/12/03 00:10:27;;;;;;;56.30;33.27;;;2.00;99.90;;;;;;5002154;28;20705;-79
2020/12/03 00:13:22;;;;;;;47.70;31.17;;;2.10;99.90;;;;;;4995902;28;20714;-77
2020/12/03 00:16:07;;;;;;;46.87;30.00;;;2.10;99.90;;;;;;5005120;28;20789;-77
2020/12/03 00:18:52;;;;;;;55.60;31.67;;;2.10;99.90;;;;;;5008686;28;20670;-79
2020/12/03 00:21:38;;;;;;;48.03;31.40;;;2.10;99.90;;;;;;4999696;28;20657;-77
2020/12/03 00:24:27;;;;;;;49.13;31.30;;;2.20;99.90;;;;;;4989329;28;20721;-78
2020/12/03 00:27:15;;;;;;;49.93;31.80;;;2.20;99.90;;;;;;5004793;28;20677;-78
2020/12/03 00:30:00;;;;;;;49.40;30.43;;;2.20;99.90;;;;;;5003733;28;20695;-77
2020/12/03 00:32:44;;;;;;;53.50;32.90;;;2.20;99.90;;;;;;4993319;28;20718;-79
2020/12/03 00:35:29;;;;;;;53.17;31.30;;;2.20;99.90;;;;;;4997664;28;20717;-77
2020/12/03 00:38:16;;;;;;;50.13;31.87;;;2.20;99.90;;;;;;4999357;28;20591;-77
2020/12/03 00:41:00;;;;;;;51.47;32.90;;;2.20;99.90;;;;;;4991427;28;21006;-80
2020/12/03 00:43:46;;;;;;;52.40;32.53;;;2.20;99.90;;;;;;5018411;28;20645;-77
2020/12/03 00:46:32;;;;;;;51.47;32.93;;;2.20;99.90;;;;;;5016590;28;20603;-79
2020/12/03 00:49:18;;;;;;;48.67;31.90;;;2.20;99.90;;;;;;5014131;28;20699;-77
2020/12/03 00:52:05;;;;;;;50.83;30.67;;;2.20;99.90;;;;;;5012269;28;20643;-77
2020/12/03 00:54:50;;;;;;;53.47;31.70;;;2.20;99.90;;;;;;5005648;28;20643;-77
2020/12/03 00:57:35;;;;;;;52.90;33.40;;;2.20;99.90;;;;;;5008684;28;20618;-77
2020/12/03 01:00:21;;;;;;;50.07;31.23;;;2.20;99.90;;;;;;5006629;28;21022;-77
2020/12/03 01:03:07;;;;;;;49.80;31.53;;;2.20;99.90;;;;;;5019966;28;20753;-77
2020/12/03 01:05:51;;;;;;;51.43;32.50;;;2.20;99.90;;;;;;5008380;28;20737;-78
2020/12/03 01:08:36;;;;;;;53.33;33.17;;;2.30;99.90;;;;;;5018615;28;20671;-80
2020/12/03 01:11:23;;;;;;;49.20;31.93;;;2.30;99.90;;;;;;5008538;28;21071;-78
2020/12/03 01:14:07;;;;;;;50.87;31.13;;;2.20;99.90;;;;;;5020636;28;20923;-77
2020/12/03 01:16:52;;;;;;;51.53;31.90;;;2.30;99.90;;;;;;5013387;28;20611;-77
2020/12/03 01:19:37;;;;;;;50.53;32.27;;;2.20;99.90;;;;;;5011699;28;21210;-77
2020/12/03 01:22:22;;;;;;;47.17;30.00;;;2.10;99.90;;;;;;5016860;28;20761;-77
2020/12/03 01:25:07;;;;;;;51.17;30.30;;;2.10;99.90;;;;;;5025139;28;20621;-77
2020/12/03 01:27:53;;;;;;;51.40;30.90;;;2.20;99.90;;;;;;5022438;28;20632;-77
2020/12/03 01:30:39;;;;;;;55.07;33.97;;;2.10;99.90;;;;;;5013126;28;21154;-77
2020/12/03 01:33:24;;;;;;;51.00;33.50;;;2.10;99.90;;;;;;5019110;28;20809;-77
2020/12/03 01:36:12;;;;;;;51.40;31.60;;;2.10;99.90;;;;;;5017832;28;20633;-76
2020/12/03 01:38:56;;;;;;;50.63;33.17;;;2.20;99.90;;;;;;5018806;28;20598;-77
2020/12/03 01:41:41;;;;;;;55.13;32.33;;;2.20;99.90;;;;;;5027439;28;20691;-77
2020/12/03 01:44:47;;;;;;;45.23;30.00;;;2.20;99.90;;;;;;5028165;28;20822;-77
2020/12/03 01:47:36;;;;;;;48.80;30.60;;;2.20;99.90;;;;;;5016368;28;20629;-77
2020/12/03 01:50:20;;;;;;;56.13;32.70;;;2.20;99.90;;;;;;5014838;28;21041;-76
2020/12/03 01:53:05;;;;;;;55.37;33.20;;;2.20;99.90;;;;;;5015185;28;20662;-77
2020/12/03 01:55:50;;;;;;;53.63;33.23;;;2.20;99.90;;;;;;5027377;28;20610;-77
2020/12/03 01:58:40;;;;;;;52.10;33.53;;;2.20;99.90;;;;;;5010500;28;20637;-78
2020/12/03 02:01:25;;;;;;;49.73;32.67;;;2.20;99.90;;;;;;5011977;28;20657;-76
2020/12/03 02:04:10;;;;;;;48.73;31.13;;;2.30;99.90;;;;;;5017540;28;20922;-78
2020/12/03 02:07:08;;;;;;;49.70;31.70;;;2.30;99.90;;;;;;5009270;28;20638;-77
2020/12/03 02:09:52;;;;;;;47.70;30.37;;;2.30;99.90;;;;;;5014763;28;20677;-77
2020/12/03 02:12:37;;;;;;;45.43;28.57;;;2.40;99.90;;;;;;5017873;23;20878;-64
2020/12/03 02:15:22;;;;;;;50.90;31.00;;;2.40;99.90;;;;;;5015785;28;21213;-64
2020/12/03 02:18:08;;;;;;;47.30;29.17;;;2.30;99.90;;;;;;5011339;28;20608;-64
2020/12/03 02:20:52;;;;;;;48.47;31.00;;;2.40;99.90;;;;;;5011347;28;20648;-64
2020/12/03 02:23:37;;;;;;;47.17;29.60;;;2.40;99.90;;;;;;4992415;28;20651;-64
2020/12/03 02:26:23;;;;;;;43.40;29.27;;;2.40;99.90;;;;;;5000060;28;20593;-63
2020/12/03 02:29:07;;;;;;;50.23;30.50;;;2.40;99.90;;;;;;5003985;28;20581;-64
2020/12/03 02:31:53;;;;;;;48.63;30.30;;;2.50;99.90;;;;;;5000603;28;20705;-63
2020/12/03 02:34:38;;;;;;;49.40;30.97;;;2.50;99.90;;;;;;4998030;28;20584;-64
2020/12/03 02:37:22;;;;;;;44.87;29.10;;;2.50;99.90;;;;;;4985371;28;21129;-64
2020/12/03 02:40:07;;;;;;;43.40;28.53;;;2.50;99.90;;;;;;4990673;28;20632;-64
2020/12/03 02:42:52;;;;;;;48.67;31.20;;;2.40;99.90;;;;;;4983056;28;20764;-64
2020/12/03 02:45:36;;;;;;;48.83;31.63;;;2.40;99.90;;;;;;4991523;28;20684;-63
2020/12/03 02:48:21;;;;;;;45.40;29.10;;;2.50;99.90;;;;;;4989911;28;20600;-64
2020/12/03 02:51:05;;;;;;;50.07;31.20;;;2.50;99.90;;;;;;4987070;28;20584;-64
2020/12/03 02:53:50;;;;;;;50.03;30.03;;;2.50;99.90;;;;;;4995955;28;20682;-64
2020/12/03 02:56:39;;;;;;;49.10;30.67;;;2.50;99.90;;;;;;4981595;28;20950;-64
2020/12/03 02:59:23;;;;;;;43.43;28.90;;;2.40;99.90;;;;;;4992188;28;20934;-65
2020/12/03 03:02:08;;;;;;;48.37;32.13;;;2.40;99.90;;;;;;4981502;28;20656;-64
2020/12/03 03:04:53;;;;;;;45.73;28.90;;;2.40;99.90;;;;;;4994000;28;20608;-64
2020/12/03 03:07:37;;;;;;;46.57;28.63;;;2.50;99.90;;;;;;4992388;28;21092;-63
2020/12/03 03:10:22;;;;;;;48.10;29.30;;;2.40;99.90;;;;;;5004762;28;20660;-63
2020/12/03 03:13:07;;;;;;;52.60;31.37;;;2.40;99.90;;;;;;4992111;28;20807;-64
2020/12/03 03:15:51;;;;;;;46.87;30.30;;;2.40;99.90;;;;;;4984489;28;20741;-64
2020/12/03 03:18:35;;;;;;;47.47;30.23;;;2.50;99.90;;;;;;5005629;28;20608;-63
2020/12/03 03:21:21;;;;;;;47.50;30.07;;;2.50;99.90;;;;;;4989337;28;20659;-64
2020/12/03 03:24:05;;;;;;;50.67;31.90;;;2.40;99.90;;;;;;4986750;28;21121;-64
2020/12/03 03:26:50;;;;;;;51.17;31.03;;;2.40;99.90;;;;;;5005195;28;21194;-64
2020/12/03 03:29:34;;;;;;;47.20;29.53;;;2.40;99.90;;;;;;5004407;28;21098;-64
2020/12/03 03:32:22;;;;;;;51.53;31.50;;;2.50;99.90;;;;;;4977435;28;20718;-64
2020/12/03 03:35:07;;;;;;;47.47;29.40;;;2.40;99.90;;;;;;4989604;28;20735;-63
2020/12/03 03:37:52;;;;;;;44.87;30.10;;;2.40;99.90;;;;;;4991708;28;20947;-64
2020/12/03 03:40:36;;;;;;;47.23;29.83;;;2.50;99.90;;;;;;4990095;28;21254;-63
2020/12/03 03:43:21;;;;;;;45.47;30.07;;;2.50;99.90;;;;;;4991534;28;20636;-64
2020/12/03 03:46:06;;;;;;;48.10;30.37;;;2.40;99.90;;;;;;4991108;28;20744;-64
2020/12/03 03:48:54;;;;;;;43.77;29.33;;;2.40;99.90;;;;;;4983101;28;20592;-64
2020/12/03 03:51:42;;;;;;;47.67;30.20;;;2.40;99.90;;;;;;4985734;28;20645;-63
2020/12/03 03:54:26;;;;;;;49.90;29.87;;;2.30;99.90;;;;;;4986300;28;20799;-64
2020/12/03 03:57:11;;;;;;;45.77;29.63;;;2.40;99.90;;;;;;4983717;28;21119;-63
2020/12/03 03:59:55;;;;;;;49.50;30.00;;;2.30;99.90;;;;;;5004889;28;20868;-64
2020/12/03 04:02:40;;;;;;;44.10;28.57;;;2.30;99.90;;;;;;4994781;28;20721;-64
2020/12/03 04:05:24;;;;;;;49.77;30.20;;;2.30;99.90;;;;;;5005054;28;20983;-64
2020/12/03 04:08:09;;;;;;;44.70;28.80;;;2.30;99.90;;;;;;4991856;28;20607;-64
2020/12/03 04:10:54;;;;;;;51.90;31.00;;;2.20;99.90;;;;;;4977851;28;20945;-64
2020/12/03 04:13:39;;;;;;;44.90;30.00;;;2.20;99.90;;;;;;5000690;28;20703;-64
2020/12/03 04:16:23;;;;;;;50.73;31.27;;;2.20;99.90;;;;;;4996075;28;20604;-64
2020/12/03 04:19:08;;;;;;;46.17;29.40;;;2.40;99.90;;;;;;4990359;28;20725;-64
2020/12/03 04:21:52;;;;;;;46.07;28.33;;;2.30;99.90;;;;;;4988497;28;20676;-64
2020/12/03 04:24:36;;;;;;;47.37;29.67;;;2.30;99.90;;;;;;4990745;28;21286;-64
2020/12/03 04:27:21;;;;;;;46.90;30.10;;;2.30;99.90;;;;;;4990602;28;20636;-64
2020/12/03 04:30:07;;;;;;;52.63;30.80;;;2.40;99.90;;;;;;4990621;28;20699;-63
2020/12/03 04:32:52;;;;;;;47.77;31.10;;;2.30;99.90;;;;;;4989168;28;20648;-63
2020/12/03 04:35:37;;;;;;;47.60;29.63;;;2.30;99.90;;;;;;4990113;28;20624;-64
2020/12/03 04:38:22;;;;;;;44.27;30.33;;;2.30;99.90;;;;;;4984909;28;20637;-63
2020/12/03 04:41:07;;;;;;;43.77;29.10;;;2.30;99.90;;;;;;4987586;28;20656;-64
2020/12/03 04:44:31;;;;;;;46.80;28.97;;;2.20;99.90;;;;;;4991248;28;20624;-63
2020/12/03 04:47:34;;;;;;;50.07;30.67;;;2.20;99.90;;;;;;4925772;29;20678;-63
2020/12/03 04:50:54;;;;;;;51.40;30.40;;;2.20;99.90;;;;;;4971117;28;20542;-62
2020/12/03 04:53:53;;;;;;;48.00;30.00;;;2.10;99.90;;;;;;4971510;28;20637;-63
2020/12/03 04:56:51;;;;;;;44.37;29.47;;;2.10;99.90;;;;;;4984442;28;20925;-64
2020/12/03 04:59:51;;;;;;;46.93;29.40;;;2.10;99.90;;;;;;4989432;28;20612;-63
2020/12/03 05:02:54;;;;;;;46.97;28.67;;;2.00;99.90;;;;;;4999980;28;20656;-63
2020/12/03 05:05:55;;;;;;;45.80;28.97;;;2.10;99.90;;;;;;4989200;28;20748;-64
2020/12/03 05:08:58;;;;;;;45.77;28.83;;;2.10;99.90;;;;;;4988459;28;20612;-64
2020/12/03 05:11:49;;;;;;;46.17;29.33;;;2.10;99.90;;;;;;4976816;28;21003;-64
2020/12/03 05:14:40;;;;;;;48.60;30.03;;;2.00;99.90;;;;;;4987484;28;20644;-64
2020/12/03 05:17:43;;;;;;;46.07;28.57;;;2.00;99.90;;;;;;5001089;28;20663;-66
2020/12/03 05:20:49;;;;;;;42.60;29.20;;;2.00;99.90;;;;;;5000649;28;20961;-64
2020/12/03 05:23:35;;;;;;;42.43;26.80;;;2.00;99.90;;;;;;4998058;28;20641;-64
2020/12/03 05:26:25;;;;;;;45.20;29.90;;;2.00;99.90;;;;;;4989123;28;20767;-64
2020/12/03 05:29:10;;;;;;;46.07;28.90;;;2.00;99.90;;;;;;4989293;28;20683;-64
2020/12/03 05:31:55;;;;;;;45.47;29.47;;;1.90;99.90;;;;;;4986501;28;20727;-64
2020/12/03 05:34:40;;;;;;;47.33;29.97;;;1.90;99.90;;;;;;4988690;28;21032;-64
2020/12/03 05:37:27;;;;;;;44.50;27.90;;;1.90;99.90;;;;;;4991158;28;20977;-63
2020/12/03 05:40:24;;;;;;;43.57;28.97;;;2.00;99.90;;;;;;4985199;28;20617;-63
2020/12/03 05:43:10;;;;;;;43.10;28.23;;;1.90;99.90;;;;;;4987187;28;20660;-64
2020/12/03 05:45:56;;;;;;;42.27;27.63;;;1.90;99.90;;;;;;4984015;28;20761;-64
2020/12/03 05:48:52;;;;;;;47.13;29.43;;;1.90;99.90;;;;;;4988368;28;20625;-63
2020/12/03 05:51:37;;;;;;;45.23;28.50;;;1.90;99.90;;;;;;4987712;28;20637;-64
2020/12/03 05:54:21;;;;;;;47.80;31.03;;;1.90;99.90;;;;;;5002871;28;20627;-64
2020/12/03 05:57:21;;;;;;;48.30;30.13;;;1.90;99.90;;;;;;4993633;28;21214;-64
2020/12/03 06:00:14;;;;;;;45.40;27.90;;;1.80;99.90;;;;;;4990478;28;20616;-63
2020/12/03 06:03:07;;;;;;;49.97;30.70;;;1.80;99.90;;;;;;4984684;28;20664;-64
2020/12/03 06:06:16;;;;;;;47.77;29.27;;;1.90;99.90;;;;;;4981072;28;20608;-64
2020/12/03 06:09:00;;;;;;;45.57;28.30;;;2.00;99.90;;;;;;4993129;28;20724;-64
2020/12/03 06:11:50;;;;;;;46.63;28.47;;;1.90;99.90;;;;;;5002634;28;20639;-64
2020/12/03 06:15:07;;;;;;;50.17;29.43;;;2.00;99.90;;;;;;4998970;28;20683;-64
2020/12/03 06:18:14;;;;;;;44.80;28.23;;;2.10;99.90;;;;;;5003907;28;20967;-64
2020/12/03 06:21:35;;;;;;;46.37;29.17;;;2.10;99.90;;;;;;4998980;28;20999;-64
2020/12/03 06:24:48;;;;;;;43.30;28.27;;;2.20;99.90;;;;;;4977447;28;20636;-62
2020/12/03 06:27:41;;;;;;;48.47;28.83;;;2.20;99.90;;;;;;5005487;28;21589;-64
2020/12/03 06:30:27;;;;;;;47.73;28.70;;;2.10;99.90;;;;;;4985756;28;20605;-60
2020/12/03 06:33:35;;;;;;;43.80;29.30;;;2.10;99.90;;;;;;4996142;28;21150;-63
2020/12/03 06:36:42;;;;;;;49.73;29.53;;;2.20;99.90;;;;;;4998566;28;20675;-64
2020/12/03 06:39:48;;;;;;;45.83;28.73;;;2.20;99.90;;;;;;4999728;28;20584;-64
2020/12/03 06:42:32;;;;;;;44.25;29.60;;;2.20;99.90;;;;;;4991631;28;20756;-64
2020/12/03 06:45:42;;;;;;;49.47;29.23;;;2.20;99.90;;;;;;4994648;28;20627;-64
2020/12/03 06:48:45;;;;;;;41.80;26.90;;;2.30;99.90;;;;;;4987017;28;21287;-64
2020/12/03 06:51:41;;;;;;;48.30;29.10;;;2.30;99.90;;;;;;4995664;28;21238;-64
2020/12/03 06:54:59;;;;;;;42.83;27.43;;;2.30;99.90;;;;;;4981987;28;20635;-63
2020/12/03 06:58:06;;;;;;;45.27;29.23;;;2.20;99.90;;;;;;4990937;28;20600;-64
2020/12/03 07:00:53;;;;;;;42.50;28.40;;;2.20;99.90;;;;;;4982536;28;20968;-65
2020/12/03 07:04:13;;;;;;;41.37;28.40;;;2.20;99.90;;;;;;4973464;28;20667;-63
2020/12/03 07:07:20;;;;;;;42.80;28.33;;;2.30;99.90;;;;;;4964286;28;21219;-65
2020/12/03 07:10:25;;;;;;;46.00;27.40;;;2.20;99.90;;;;;;4981564;28;20585;-64
2020/12/03 07:13:31;;;;;;;47.73;28.87;;;2.20;99.90;;;;;;4983866;28;20676;-64
2020/12/03 07:16:37;;;;;;;44.53;28.10;;;2.10;99.90;;;;;;4987150;28;20692;-64
2020/12/03 07:19:59;;;;;;;45.73;28.27;;;2.20;99.90;;;;;;5000234;28;20706;-67
2020/12/03 07:23:02;;;;;;;46.00;28.80;;;2.20;99.90;;;;;;4995399;28;20672;-67
2020/12/03 07:25:48;;;;;;;45.93;27.37;;;2.10;99.90;;;;;;4983820;28;21250;-68
2020/12/03 07:28:36;;;;;;;41.63;26.43;;;2.00;99.90;;;;;;4986334;28;21218;-68
2020/12/03 07:31:31;;;;;;;44.93;27.83;;;2.10;99.90;;;;;;4986187;28;20703;-64
2020/12/03 07:34:29;;;;;;;45.67;28.60;;;2.10;99.90;;;;;;4981723;28;20811;-67
2020/12/03 07:38:08;;;;;;;44.13;28.53;;;2.10;99.90;;;;;;4989877;28;20718;-68
2020/12/03 07:40:54;;;;;;;44.30;28.10;;;2.10;99.90;;;;;;4980595;28;20691;-68
2020/12/03 07:43:39;;;;;;;50.27;28.87;;;2.10;99.90;;;;;;4986494;28;21230;-67
2020/12/03 07:46:34;;;;;;;48.27;30.23;;;2.00;99.90;;;;;;4986290;28;20660;-65
2020/12/03 07:49:45;;;;;;;44.47;27.43;;;2.10;99.90;;;;;;5002211;28;20960;-63
2020/12/03 07:52:32;;;;;;;44.07;27.53;;;2.00;99.90;;;;;;4985716;28;20748;-64
2020/12/03 07:55:20;;;;;;;47.57;28.40;;;2.00;99.90;;;;;;4994381;28;20601;-64
2020/12/03 07:58:05;;;;;;;40.27;27.37;;;2.10;99.90;;;;;;4998021;28;20588;-64
2020/12/03 08:00:52;;;;;;;42.83;28.40;;;2.10;99.90;;;;;;4996270;28;20613;-63
2020/12/03 08:03:50;;;;;;;44.80;28.80;;;2.00;99.90;;;;;;4979467;28;21280;-64
2020/12/03 08:06:37;;;;;;;45.83;28.87;;;2.10;99.90;;;;;;4972051;28;20628;-64
2020/12/03 08:09:24;;;;;;;47.20;28.10;;;2.10;99.90;;;;;;4992569;28;20675;-64
2020/12/03 08:12:08;;;;;;;43.53;28.70;;;2.10;99.90;;;;;;4983249;28;21237;-64
2020/12/03 08:14:56;;;;;;;48.73;28.60;;;2.00;99.90;;;;;;5011259;23;20698;-69
2020/12/03 08:17:44;;;;;;;45.17;27.40;;;2.00;99.90;;;;;;5001403;28;20608;-68
2020/12/03 08:20:46;;;;;;;47.83;29.73;;;2.00;99.90;;;;;;5006581;28;20744;-69
2020/12/03 08:23:31;;;;;;;41.07;27.60;;;2.10;99.90;;;;;;5017588;28;20657;-69
2020/12/03 08:26:27;;;;;;;43.80;27.20;;;2.10;99.90;;;;;;5003204;28;20655;-68
2020/12/03 08:29:42;;;;;;;45.00;28.80;;;2.10;99.90;;;;;;5000721;28;21044;-69
2020/12/03 08:32:26;;;;;;;47.93;29.03;;;2.10;99.90;;;;;;4989121;28;20663;-69
2020/12/03 08:35:13;;;;;;;41.60;26.30;;;2.10;99.90;;;;;;5006687;28;20769;-69
2020/12/03 08:38:01;;;;;;;45.87;27.60;;;2.10;99.90;;;;;;5002301;28;20676;-68
2020/12/03 08:40:47;;;;;;;44.50;27.57;;;2.10;99.90;;;;;;5008422;28;20627;-69
2020/12/03 08:43:39;;;;;;;44.83;28.53;;;2.20;99.90;;;;;;5005824;28;20766;-69
2020/12/03 08:46:25;;;;;;;44.50;27.07;;;2.20;99.90;;;;;;4999150;28;21233;-69
2020/12/03 08:49:18;;;;;;;45.97;27.10;;;2.30;99.90;;;;;;5001140;28;20623;-69
2020/12/03 08:52:03;;;;;;;42.87;27.13;;;2.20;99.90;;;;;;5003153;28;20710;-69
2020/12/03 08:54:48;;;;;;;44.77;28.33;;;2.20;99.90;;;;;;5003153;28;20659;-68
2020/12/03 08:57:36;;;;;;;47.00;27.87;;;2.20;99.90;;;;;;5005494;28;20671;-68
2020/12/03 09:00:24;;;;;;;44.77;27.67;;;2.20;99.90;;;;;;4993865;28;20651;-68
2020/12/03 09:03:16;;;;;;;45.07;28.10;;;2.20;99.90;;;;;;5003295;28;20647;-69
2020/12/03 09:06:01;;;;;;;45.63;27.33;;;2.10;99.90;;;;;;5007082;28;20762;-69
2020/12/03 09:08:47;;;;;;;47.03;27.07;;;2.10;99.90;;;;;;4999432;28;20659;-69
2020/12/03 09:11:34;;;;;;;42.80;26.53;;;2.20;99.90;;;;;;5003599;28;20664;-68
2020/12/03 09:14:20;;;;;;;45.93;26.83;;;2.20;99.90;;;;;;5000086;28;20666;-68
2020/12/03 09:17:09;;;;;;;41.67;27.33;;;2.20;99.90;;;;;;5005554;28;20584;-69
2020/12/03 09:19:53;;;;;;;40.43;26.83;;;2.20;99.90;;;;;;5007435;28;20635;-68
2020/12/03 09:22:39;;;;;;;41.10;26.17;;;2.20;99.90;;;;;;4999832;28;20694;-69
2020/12/03 09:25:25;;;;;;;45.60;26.63;;;2.20;99.90;;;;;;5001305;28;21244;-69
2020/12/03 09:28:10;;;;;;;45.40;27.63;;;2.20;99.90;;;;;;5002748;28;20675;-69
2020/12/03 09:30:55;;;;;;;45.30;28.20;;;2.10;99.90;;;;;;5000858;28;20600;-69
2020/12/03 09:33:44;;;;;;;48.03;28.90;;;2.20;99.90;;;;;;4999406;28;20658;-68
2020/12/03 09:36:31;;;;;;;41.50;26.47;;;2.30;99.90;;;;;;5003230;28;20666;-68
2020/12/03 09:39:17;;;;;;;44.00;27.13;;;2.30;99.90;;;;;;5003311;28;20673;-69
2020/12/03 09:42:03;;;;;;;42.03;26.50;;;2.30;99.90;;;;;;5001570;28;20663;-68
2020/12/03 09:44:54;;;;;;;44.20;26.40;;;2.40;99.90;;;;;;5003627;28;20668;-69
2020/12/03 09:47:41;;;;;;;45.27;28.77;;;2.50;99.90;;;;;;5006214;28;21023;-68
2020/12/03 09:50:26;;;;;;;46.13;28.47;;;2.50;99.90;;;;;;5005813;28;20670;-68
2020/12/03 09:53:14;;;;;;;41.57;26.90;;;2.50;99.90;;;;;;5002984;28;21006;-68
2020/12/03 09:56:03;;;;;;;47.90;28.53;;;2.60;99.90;;;;;;5007057;28;20654;-68
2020/12/03 09:58:57;;;;;;;43.13;27.77;;;2.50;99.90;;;;;;5008775;28;20624;-68
2020/12/03 10:02:04;;;;;;;46.10;28.30;;;2.50;99.90;;;;;;5002365;28;20638;-68
2020/12/03 10:05:20;;;;;;;39.27;26.13;;;2.50;99.90;;;;;;5001644;28;20650;-68
2020/12/03 10:08:10;;;;;;;46.17;27.93;;;2.50;99.90;;;;;;5011106;28;20674;-68
2020/12/03 10:11:29;;;;;;;41.77;29.00;;;2.50;99.90;;;;;;5007322;28;20666;-67
2020/12/03 10:14:23;;;;;;;44.90;28.57;;;2.50;99.90;;;;;;4965282;28;20691;-68
2020/12/03 10:17:14;;;;;;;44.80;27.77;;;2.50;99.90;;;;;;5004122;28;20619;-67
2020/12/03 10:20:02;;;;;;;43.67;26.20;;;2.60;99.90;;;;;;5001050;28;21154;-68
2020/12/03 10:23:10;;;;;;;46.17;27.43;;;2.60;99.90;;;;;;5004101;28;21237;-68
2020/12/03 10:26:14;;;;;;;45.30;25.70;;;2.70;99.90;;;;;;4982411;28;20658;-68
2020/12/03 10:29:31;;;;;;;43.20;26.67;;;2.80;99.90;;;;;;4996119;28;21170;-68
2020/12/03 10:32:18;;;;;;;43.60;27.10;;;2.80;99.90;;;;;;5005589;28;20675;-68
2020/12/03 10:35:04;;;;;;;36.50;24.73;;;2.80;99.90;;;;;;5005341;28;20658;-68
2020/12/03 10:37:56;;;;;;;42.17;25.63;;;2.80;99.90;;;;;;5001130;28;20755;-68
2020/12/03 10:40:45;;;;;;;45.33;27.03;;;2.80;99.90;;;;;;5004117;28;21209;-68
2020/12/03 10:43:40;;;;;;;42.50;27.67;;;2.80;99.90;;;;;;5004767;28;20640;-68
2020/12/03 10:46:26;;;;;;;39.77;24.70;;;2.80;99.90;;;;;;5004234;28;20750;-68
2020/12/03 10:49:15;;;;;;;43.27;26.50;;;2.80;99.90;;;;;;5006379;28;20646;-67
2020/12/03 10:52:02;;;;;;;41.37;26.03;;;2.80;99.90;;;;;;5007592;28;21105;-68
2020/12/03 10:54:47;;;;;;;41.93;28.03;;;2.80;99.90;;;;;;5007655;28;21147;-68
2020/12/03 10:57:33;;;;;;;41.77;26.80;;;2.90;99.90;;;;;;5004048;28;20583;-68
2020/12/03 11:00:20;;;;;;;46.03;27.90;;;2.80;99.90;;;;;;5003516;28;21237;-68
2020/12/03 11:03:10;;;;;;;39.30;24.80;;;2.80;99.90;;;;;;5008263;28;21020;-68
2020/12/03 11:05:56;;;;;;;38.30;24.60;;;2.70;99.90;;;;;;5009487;28;20659;-68
2020/12/03 11:08:41;;;;;;;38.20;25.57;;;2.80;99.90;;;;;;5004875;28;20743;-68
2020/12/03 11:11:41;;;;;;;43.13;26.40;;;2.80;99.90;;;;;;5004903;28;20681;-68
2020/12/03 11:14:31;;;;;;;37.27;24.00;;;2.90;99.90;;;;;;5000943;28;20655;-67
2020/12/03 11:17:36;;;;;;;42.60;25.03;;;2.90;99.90;;;;;;5005397;28;20588;-68
2020/12/03 11:20:22;;;;;;;37.43;23.30;;;3.00;99.90;;;;;;5007436;28;20674;-68
2020/12/03 11:23:13;;;;;;;40.03;24.30;;;2.90;99.90;;;;;;5003602;28;21131;-67
2020/12/03 11:26:06;;;;;;;39.10;24.83;;;2.90;99.90;;;;;;5005608;28;20699;-67
2020/12/03 11:28:52;;;;;;;38.33;25.10;;;2.90;99.90;;;;;;5003144;28;20744;-68
2020/12/03 11:31:37;;;;;;;40.13;24.47;;;2.90;99.90;;;;;;4993340;28;21142;-68
2020/12/03 11:34:34;;;;;;;36.37;24.20;;;2.80;99.90;;;;;;5005244;28;21019;-68
2020/12/03 11:37:26;;;;;;;40.40;24.40;;;2.80;99.90;;;;;;5005632;28;20675;-68
2020/12/03 11:40:15;;;;;;;35.70;23.10;;;2.70;99.90;;;;;;5001077;28;21289;-68
2020/12/03 11:48:56;;;;;;;34.60;22.87;;;2.80;99.90;;;;;;5009508;28;20698;-68
2020/12/03 11:51:41;;;;;;;36.90;21.93;;;2.90;99.90;;;;;;5006025;28;21033;-68
2020/12/03 11:54:30;;;;;;;36.60;23.27;;;2.90;99.90;;;;;;5003019;28;20619;-68
2020/12/03 11:57:15;;;;;;;36.43;24.10;;;3.00;99.90;;;;;;5004264;28;20623;-67
2020/12/03 12:00:00;;;;;;;36.40;24.43;;;3.10;99.90;;;;;;5002504;28;21169;-68
2020/12/03 12:02:45;;;;;;;36.90;23.60;;;3.20;99.90;;;;;;5004277;28;20634;-68
2020/12/03 12:05:42;;;;;;;35.83;23.03;;;3.10;99.90;;;;;;5006873;28;20670;-68
2020/12/03 12:11:22;;;;;;;33.70;22.30;;;3.10;99.90;;;;;;5002265;28;21161;-68
2020/12/03 12:14:07;;;;;;;31.60;20.53;;;3.10;99.90;;;;;;5004816;28;21085;-68
2020/12/03 12:16:53;;;;;;;31.07;21.80;;;3.10;99.90;;;;;;5006875;28;20688;-68
2020/12/03 12:19:39;;;;;;;34.17;22.97;;;3.00;99.90;;;;;;5010893;28;20659;-67
2020/12/03 12:22:23;;;;;;;33.77;22.10;;;3.00;99.90;;;;;;5003349;28;20986;-68
2020/12/03 12:25:10;;;;;;;33.30;21.60;;;3.10;99.90;;;;;;5005887;28;20655;-68
2020/12/03 12:27:55;;;;;;;36.37;22.80;;;3.00;99.90;;;;;;5000371;28;21189;-68
2020/12/03 12:30:39;;;;;;;35.23;22.97;;;3.10;99.90;;;;;;4998675;28;20949;-68
2020/12/03 12:33:26;;;;;;;32.30;22.23;;;3.10;99.90;;;;;;5001131;28;20755;-68
2020/12/03 12:36:10;;;;;;;37.03;22.77;;;3.10;99.90;;;;;;5005915;28;21221;-68
2020/12/03 12:38:55;;;;;;;37.47;24.60;;;3.10;99.90;;;;;;4997747;28;20654;-68
2020/12/03 12:41:40;;;;;;;34.83;22.23;;;3.10;99.90;;;;;;5002696;28;20730;-68
2020/12/03 12:44:24;;;;;;;32.87;21.10;;;3.10;99.90;;;;;;5003104;28;20735;-68
2020/12/03 12:47:09;;;;;;;39.73;22.73;;;3.10;99.90;;;;;;4999055;28;20824;-68
2020/12/03 12:49:53;;;;;;;31.10;22.37;;;3.00;99.90;;;;;;4999164;28;20643;-68
2020/12/03 12:52:38;;;;;;;37.20;22.87;;;3.10;99.90;;;;;;4993859;28;20896;-68
2020/12/03 12:55:22;;;;;;;31.37;20.67;;;3.10;99.90;;;;;;4988289;28;20655;-68
2020/12/03 12:58:07;;;;;;;31.70;21.60;;;3.10;99.90;;;;;;4996111;28;20636;-68
2020/12/03 13:00:51;;;;;;;31.33;21.80;;;3.10;99.90;;;;;;4997014;28;21172;-68
2020/12/03 13:03:36;;;;;;;32.83;21.50;;;3.10;99.90;;;;;;4993211;28;20612;-68
2020/12/03 13:06:20;;;;;;;32.30;21.57;;;3.10;99.90;;;;;;4996884;28;20671;-69
2020/12/03 13:09:07;;;;;;;35.37;23.07;;;3.20;99.90;;;;;;4996076;28;20604;-68
2020/12/03 13:11:54;;;;;;;29.97;20.30;;;3.20;99.90;;;;;;4998686;28;21225;-68
2020/12/03 13:14:39;;;;;;;33.53;21.57;;;3.30;99.90;;;;;;4994082;28;20667;-69
2020/12/03 13:17:24;;;;;;;32.40;22.00;;;3.30;99.90;;;;;;4993704;28;20628;-68
2020/12/03 13:20:10;;;;;;;30.90;20.33;;;3.30;99.90;;;;;;4994361;28;20751;-69
2020/12/03 13:22:55;;;;;;;30.00;20.20;;;3.40;99.90;;;;;;4997751;28;20867;-70
2020/12/03 13:25:39;;;;;;;31.40;19.30;;;3.40;99.90;;;;;;4992636;28;20683;-72
2020/12/03 13:28:24;;;;;;;30.23;21.43;;;3.40;99.90;;;;;;4991545;28;20620;-72
2020/12/03 13:31:08;;;;;;;31.00;20.80;;;3.50;99.90;;;;;;4997363;28;20798;-71
2020/12/03 13:33:57;;;;;;;29.20;19.70;;;3.40;99.90;;;;;;4997311;28;20634;-71
2020/12/03 13:36:42;;;;;;;30.97;20.93;;;3.40;99.90;;;;;;4998655;28;20611;-72
2020/12/03 13:39:26;;;;;;;31.00;19.20;;;3.40;99.90;;;;;;4996434;28;20600;-72
2020/12/03 13:42:11;;;;;;;31.83;20.03;;;3.40;99.90;;;;;;4996130;28;20690;-74
2020/12/03 13:44:55;;;;;;;29.77;19.67;;;3.50;99.90;;;;;;5002963;28;20806;-71
2020/12/03 13:47:40;;;;;;;29.00;18.70;;;3.40;99.90;;;;;;4989743;28;20704;-74
2020/12/03 13:50:24;;;;;;;29.37;20.23;;;3.30;99.90;;;;;;4996727;28;20631;-75
2020/12/03 13:53:09;;;;;;;31.23;20.27;;;3.30;99.90;;;;;;4996703;28;20770;-72
2020/12/03 13:55:53;;;;;;;28.97;19.17;;;3.30;99.90;;;;;;5002996;28;20674;-72
2020/12/03 13:58:38;;;;;;;27.90;19.30;;;3.40;99.90;;;;;;5004826;28;20615;-73
2020/12/03 14:01:26;;;;;;;28.47;19.60;;;3.30;99.90;;;;;;4994128;28;20647;-73
2020/12/03 14:04:10;;;;;;;31.70;20.27;;;3.30;99.90;;;;;;4998991;28;20603;-73
2020/12/03 14:06:55;;;;;;;29.37;19.33;;;3.30;99.90;;;;;;4989634;28;20633;-73
2020/12/03 14:09:39;;;;;;;34.97;20.73;;;3.40;99.90;;;;;;4995843;28;20664;-73
2020/12/03 14:12:23;;;;;;;28.53;18.70;;;3.50;99.90;;;;;;4997316;28;20714;-70
2020/12/03 14:17:36;;;;;;;30.43;19.63;;;3.50;99.90;;;;;;5000689;28;20667;-73
2020/12/03 14:20:21;;;;;;;26.07;18.77;;;3.50;99.90;;;;;;5003806;28;20623;-76
2020/12/03 14:23:06;;;;;;;28.40;18.97;;;3.50;99.90;;;;;;5004723;28;20802;-76
2020/12/03 14:25:51;;;;;;;29.47;17.80;;;3.50;99.90;;;;;;5010227;28;20690;-76
2020/12/03 14:28:35;;;;;;;28.30;18.27;;;3.60;99.90;;;;;;4992128;28;20610;-75
2020/12/03 14:31:20;;;;;;;29.50;19.30;;;3.60;99.90;;;;;;5000391;28;20673;-77
2020/12/03 14:34:05;;;;;;;28.77;19.60;;;3.60;99.90;;;;;;5008483;28;20634;-74
2020/12/03 14:36:50;;;;;;;30.17;19.53;;;3.70;99.90;;;;;;5002169;28;20650;-73
2020/12/03 14:39:34;;;;;;;27.10;18.90;;;3.60;99.90;;;;;;5002456;28;21216;-75
2020/12/03 14:42:19;;;;;;;29.60;18.70;;;3.70;99.90;;;;;;4997505;28;21219;-74